Aviation Digital Data Service (ADDS)

Output produced by METARs form (0011 UTC 24 May 2022)
found at http://www.aviationweather.gov/metar/data/
 
TAF GLRB 231700Z 2318/2418 21009KT 9999 BKN016 FEW025CB 
     TEMPO 2320/2324 32005KT 7000 -TSRA BKN012 FEW022CB 
     BECMG 2402/2404 00000KT 9000